Time;durP1;ratioP1;P1;durP2;ratioP2;P2;SDS_P1;SDS_P2;PMS_P1;PMS_P2;Temp;Humidity;BMP_temperature;BMP_pressure;BME280_temperature;BME280_humidity;BME280_pressure;Samples;Min_cycle;Max_cycle;Signal;HPM_P1;HPM_P2
2020/12/29 00:00:10;;;;;;;24.25;12.65;;;1.20;99.90;;;;;;4982410;28;20141;-69
2020/12/29 00:02:36;;;;;;;23.58;12.80;;;1.10;99.90;;;;;;4981773;28;20041;-69
2020/12/29 00:05:02;;;;;;;27.38;13.52;;;1.10;99.90;;;;;;5001852;28;20125;-69
2020/12/29 00:07:27;;;;;;;23.88;12.43;;;1.10;99.90;;;;;;4979419;28;20030;-69
2020/12/29 00:09:53;;;;;;;25.45;13.00;;;1.10;99.90;;;;;;4986825;28;20112;-69
2020/12/29 00:12:19;;;;;;;24.50;13.30;;;1.10;99.90;;;;;;4980583;28;20053;-69
2020/12/29 00:14:44;;;;;;;26.90;13.38;;;1.10;99.90;;;;;;4981740;28;20136;-69
2020/12/29 00:17:10;;;;;;;27.52;13.73;;;1.10;99.90;;;;;;4981613;28;20038;-69
2020/12/29 00:19:36;;;;;;;23.95;12.18;;;1.10;99.90;;;;;;4979942;28;20057;-69
2020/12/29 00:22:01;;;;;;;25.30;13.52;;;1.10;99.90;;;;;;4982642;28;20062;-69
2020/12/29 00:24:27;;;;;;;22.98;13.13;;;1.00;99.90;;;;;;4982025;28;20061;-69
2020/12/29 00:26:53;;;;;;;25.88;13.50;;;1.00;99.90;;;;;;4980503;28;20037;-69
2020/12/29 00:29:18;;;;;;;24.80;13.05;;;1.10;99.90;;;;;;4981507;28;20034;-69
2020/12/29 00:31:44;;;;;;;25.00;13.27;;;1.00;99.90;;;;;;4980287;28;20043;-69
2020/12/29 00:34:10;;;;;;;24.10;13.13;;;1.10;99.90;;;;;;4981610;28;20031;-69
2020/12/29 00:36:36;;;;;;;24.92;13.30;;;1.10;99.90;;;;;;4980422;28;20050;-68
2020/12/29 00:39:02;;;;;;;25.98;13.90;;;1.10;99.90;;;;;;4982484;28;20061;-69
2020/12/29 00:41:28;;;;;;;24.73;12.90;;;1.20;99.90;;;;;;4981627;28;20034;-68
2020/12/29 00:43:54;;;;;;;25.58;14.27;;;1.20;99.90;;;;;;4982147;28;20561;-69
2020/12/29 00:46:21;;;;;;;26.48;13.85;;;1.20;99.90;;;;;;5012872;28;20208;-69
2020/12/29 00:48:48;;;;;;;26.13;12.98;;;1.20;99.90;;;;;;4997346;28;20038;-68
2020/12/29 00:51:19;;;;;;;25.92;13.20;;;1.20;99.90;;;;;;4983020;28;20035;-69
2020/12/29 00:53:53;;;;;;;23.17;12.45;;;1.20;99.90;;;;;;4964023;28;20829;-68
2020/12/29 00:56:19;;;;;;;25.13;13.50;;;1.20;99.90;;;;;;5004624;28;20034;-68
2020/12/29 00:58:48;;;;;;;24.75;13.38;;;1.20;99.90;;;;;;4997390;28;20034;-68
2020/12/29 01:01:15;;;;;;;26.25;13.75;;;1.20;99.90;;;;;;4967466;28;20141;-68
2020/12/29 01:04:10;;;;;;;27.02;12.70;;;1.10;99.90;;;;;;4975640;28;20030;-69
2020/12/29 01:06:36;;;;;;;27.55;13.40;;;1.20;99.90;;;;;;4979796;28;20552;-68
2020/12/29 01:09:11;;;;;;;24.88;12.80;;;1.20;99.90;;;;;;4985931;28;20792;-68
2020/12/29 01:11:36;;;;;;;24.50;13.20;;;1.20;99.90;;;;;;4964116;28;20038;-68
2020/12/29 01:14:04;;;;;;;26.92;13.65;;;1.30;99.90;;;;;;4981340;28;20034;-68
2020/12/29 01:16:32;;;;;;;28.13;14.48;;;1.30;99.90;;;;;;5005262;28;20031;-68
2020/12/29 01:18:58;;;;;;;30.05;14.98;;;1.30;99.90;;;;;;4979205;28;20037;-68
2020/12/29 01:21:24;;;;;;;26.85;14.07;;;1.30;99.90;;;;;;4981808;28;20038;-68
2020/12/29 01:23:50;;;;;;;26.00;14.07;;;1.30;99.90;;;;;;4981330;28;20029;-68
2020/12/29 01:26:26;;;;;;;29.90;15.07;;;1.50;99.90;;;;;;4980947;28;20497;-68
2020/12/29 01:28:52;;;;;;;28.85;14.93;;;1.50;99.90;;;;;;4981486;28;20103;-68
2020/12/29 01:31:29;;;;;;;26.88;14.27;;;1.50;99.90;;;;;;4981960;28;20173;-68
2020/12/29 01:33:56;;;;;;;30.27;14.98;;;1.50;99.90;;;;;;4998167;28;20042;-69
2020/12/29 01:36:22;;;;;;;30.02;14.73;;;1.60;99.90;;;;;;4981633;28;20057;-69
2020/12/29 01:38:48;;;;;;;28.48;15.30;;;1.60;99.90;;;;;;4979805;28;20042;-69
2020/12/29 01:41:14;;;;;;;31.05;15.60;;;1.50;99.90;;;;;;4977384;28;20107;-68
2020/12/29 01:43:40;;;;;;;30.50;14.95;;;1.50;99.90;;;;;;4980701;28;20426;-69
2020/12/29 01:46:05;;;;;;;27.02;14.52;;;1.50;99.90;;;;;;4976495;28;20219;-69
2020/12/29 01:48:31;;;;;;;30.08;15.57;;;1.60;99.90;;;;;;4979373;28;20076;-69
2020/12/29 01:50:57;;;;;;;33.50;16.38;;;1.60;99.90;;;;;;4981288;28;20569;-69
2020/12/29 01:53:23;;;;;;;31.60;15.75;;;1.60;99.90;;;;;;4981842;28;20061;-69
2020/12/29 01:55:50;;;;;;;32.10;16.33;;;1.60;99.90;;;;;;4979526;28;20109;-69
2020/12/29 01:58:16;;;;;;;32.33;16.30;;;1.60;99.90;;;;;;4977029;28;20506;-69
2020/12/29 02:00:42;;;;;;;32.15;15.63;;;1.60;99.90;;;;;;4978242;28;20030;-69
2020/12/29 02:03:10;;;;;;;32.55;15.73;;;1.60;99.90;;;;;;4981216;28;20033;-69
2020/12/29 02:05:39;;;;;;;33.05;16.42;;;1.60;99.90;;;;;;4980714;28;20022;-69
2020/12/29 02:08:04;;;;;;;29.80;15.30;;;1.60;99.90;;;;;;4984072;28;20188;-69
2020/12/29 02:10:30;;;;;;;31.02;16.05;;;1.60;99.90;;;;;;4979678;28;20113;-69
2020/12/29 02:12:57;;;;;;;31.27;16.50;;;1.60;99.90;;;;;;4981334;28;20145;-69
2020/12/29 02:15:23;;;;;;;31.52;16.10;;;1.60;99.90;;;;;;4981141;28;20034;-69
2020/12/29 02:17:49;;;;;;;30.23;16.27;;;1.60;99.90;;;;;;4979186;28;20046;-69
2020/12/29 02:20:14;;;;;;;32.50;16.27;;;1.60;99.90;;;;;;4976474;28;20041;-69
2020/12/29 02:22:40;;;;;;;30.45;16.00;;;1.60;99.90;;;;;;4979995;28;20579;-69
2020/12/29 02:25:10;;;;;;;33.03;15.88;;;1.60;99.90;;;;;;4980247;28;20580;-69
2020/12/29 02:27:50;;;;;;;32.58;16.45;;;1.70;99.90;;;;;;4980483;28;20049;-69
2020/12/29 02:30:16;;;;;;;33.05;17.10;;;1.60;99.90;;;;;;4978012;28;20510;-69
2020/12/29 02:32:42;;;;;;;33.63;17.23;;;1.60;99.90;;;;;;4979910;28;20034;-69
2020/12/29 02:35:10;;;;;;;35.38;17.15;;;1.60;99.90;;;;;;4980038;28;20041;-69
2020/12/29 02:37:36;;;;;;;34.92;17.48;;;1.60;99.90;;;;;;4980577;28;20142;-69
2020/12/29 02:40:03;;;;;;;33.83;17.73;;;1.50;99.90;;;;;;4973478;28;20073;-69
2020/12/29 02:42:29;;;;;;;32.58;16.88;;;1.60;99.90;;;;;;4980365;28;20034;-69
2020/12/29 02:44:54;;;;;;;37.05;18.15;;;1.60;99.90;;;;;;4996675;28;20041;-69
2020/12/29 02:47:20;;;;;;;31.83;17.20;;;1.60;99.90;;;;;;4975323;28;20045;-69
2020/12/29 02:49:46;;;;;;;33.20;17.15;;;1.60;99.90;;;;;;4979558;28;20034;-69
2020/12/29 02:52:11;;;;;;;36.10;18.80;;;1.60;99.90;;;;;;4980318;28;20038;-69
2020/12/29 02:54:37;;;;;;;36.63;18.40;;;1.60;99.90;;;;;;4979513;28;20114;-69
2020/12/29 02:57:03;;;;;;;37.60;19.52;;;1.70;99.90;;;;;;4980084;28;20034;-69
2020/12/29 02:59:30;;;;;;;37.65;19.02;;;1.60;99.90;;;;;;4976172;28;20030;-69
2020/12/29 03:01:56;;;;;;;42.53;19.42;;;1.60;99.90;;;;;;4977978;28;20074;-69
2020/12/29 03:04:23;;;;;;;38.28;18.67;;;1.60;99.90;;;;;;4980250;28;20032;-69
2020/12/29 03:06:49;;;;;;;35.67;18.63;;;1.60;99.90;;;;;;4979468;28;20031;-69
2020/12/29 03:09:15;;;;;;;39.60;20.05;;;1.60;99.90;;;;;;4980830;28;20038;-69
2020/12/29 03:11:45;;;;;;;39.35;19.48;;;1.60;99.90;;;;;;4978056;28;20042;-69
2020/12/29 03:14:11;;;;;;;36.55;19.10;;;1.60;99.90;;;;;;4984315;28;20044;-69
2020/12/29 03:16:37;;;;;;;42.00;20.92;;;1.60;99.90;;;;;;4982685;28;20133;-69
2020/12/29 03:19:03;;;;;;;41.03;20.08;;;1.50;99.90;;;;;;4983944;28;20091;-69
2020/12/29 03:21:29;;;;;;;37.05;19.40;;;1.60;99.90;;;;;;4983811;28;20731;-69
2020/12/29 03:23:55;;;;;;;37.83;19.33;;;1.60;99.90;;;;;;4981369;28;20049;-69
2020/12/29 03:26:22;;;;;;;40.83;20.42;;;1.60;99.90;;;;;;4980121;28;20502;-69
2020/12/29 03:28:48;;;;;;;40.78;20.50;;;1.70;99.90;;;;;;4983766;28;20049;-70
2020/12/29 03:31:14;;;;;;;41.60;20.05;;;1.60;99.90;;;;;;4982377;28;20038;-69
2020/12/29 03:33:40;;;;;;;39.28;19.92;;;1.60;99.90;;;;;;4983911;28;20053;-68
2020/12/29 03:36:06;;;;;;;41.63;20.55;;;1.50;99.90;;;;;;4984128;28;20042;-69
2020/12/29 03:38:31;;;;;;;42.65;20.35;;;1.60;99.90;;;;;;4981547;28;20497;-69
2020/12/29 03:40:57;;;;;;;39.40;21.50;;;1.60;99.90;;;;;;4982085;28;20038;-69
2020/12/29 03:43:23;;;;;;;44.35;21.85;;;1.50;99.90;;;;;;4983453;28;20026;-69
2020/12/29 03:45:50;;;;;;;46.10;21.65;;;1.60;99.90;;;;;;4983029;28;20034;-69
2020/12/29 03:48:22;;;;;;;46.42;22.08;;;1.70;99.90;;;;;;5014837;28;20034;-69
2020/12/29 03:50:48;;;;;;;43.15;22.27;;;1.70;99.90;;;;;;4980108;28;20506;-69
2020/12/29 03:53:14;;;;;;;46.05;22.52;;;1.80;99.90;;;;;;4982818;28;20105;-69
2020/12/29 03:55:40;;;;;;;44.08;22.08;;;1.80;99.90;;;;;;4998000;28;20546;-69
2020/12/29 03:58:07;;;;;;;43.67;22.25;;;1.80;99.90;;;;;;4983593;28;20065;-69
2020/12/29 04:00:34;;;;;;;45.95;22.75;;;1.70;99.90;;;;;;4980700;28;20038;-69
2020/12/29 04:03:00;;;;;;;48.22;23.50;;;1.70;99.90;;;;;;4983074;28;20034;-69
2020/12/29 04:05:26;;;;;;;44.88;22.88;;;1.80;99.90;;;;;;4983174;28;20035;-69
2020/12/29 04:07:52;;;;;;;38.83;20.85;;;1.80;99.90;;;;;;4999524;28;20066;-69
2020/12/29 04:10:18;;;;;;;44.60;22.70;;;1.80;99.90;;;;;;4983151;28;20137;-68
2020/12/29 04:12:44;;;;;;;46.55;22.80;;;1.80;99.90;;;;;;5000127;28;20045;-69
2020/12/29 04:15:10;;;;;;;49.53;23.20;;;1.70;99.90;;;;;;4982128;28;20031;-69
2020/12/29 04:17:37;;;;;;;45.28;22.38;;;1.60;99.90;;;;;;4979790;28;20030;-69
2020/12/29 04:20:05;;;;;;;44.08;22.10;;;1.50;99.90;;;;;;4968371;28;20034;-69
2020/12/29 04:22:32;;;;;;;50.33;23.65;;;1.60;99.90;;;;;;4978277;28;20022;-69
2020/12/29 04:24:58;;;;;;;43.58;21.65;;;1.50;99.90;;;;;;4982127;28;20375;-69
2020/12/29 04:27:24;;;;;;;51.95;24.77;;;1.50;99.90;;;;;;4982672;28;20027;-69
2020/12/29 04:29:50;;;;;;;45.38;22.88;;;1.50;99.90;;;;;;4979526;28;20062;-69
2020/12/29 04:32:16;;;;;;;44.15;22.58;;;1.40;99.90;;;;;;4981772;28;20034;-70
2020/12/29 04:34:42;;;;;;;48.03;23.80;;;1.40;99.90;;;;;;4982244;28;20048;-68
2020/12/29 04:37:08;;;;;;;49.67;23.65;;;1.40;99.90;;;;;;4977370;28;20065;-68
2020/12/29 04:39:33;;;;;;;50.75;23.92;;;1.40;99.90;;;;;;4999511;28;20106;-68
2020/12/29 04:42:05;;;;;;;47.25;24.38;;;1.40;99.90;;;;;;4982169;28;20037;-68
2020/12/29 04:44:32;;;;;;;53.38;24.55;;;1.30;99.90;;;;;;4982532;28;20030;-67
2020/12/29 04:46:58;;;;;;;49.88;25.50;;;1.30;99.90;;;;;;4981730;28;20379;-72
2020/12/29 04:49:24;;;;;;;54.22;25.92;;;1.30;99.90;;;;;;4980556;28;20026;-73
2020/12/29 04:51:57;;;;;;;52.03;25.38;;;1.30;99.90;;;;;;4980764;28;20037;-72
2020/12/29 04:54:26;;;;;;;47.20;24.30;;;1.20;99.90;;;;;;4982319;28;20038;-72
2020/12/29 04:56:56;;;;;;;49.28;24.38;;;1.20;99.90;;;;;;4981378;28;20081;-72
2020/12/29 04:59:23;;;;;;;49.97;25.13;;;1.20;99.90;;;;;;4982244;28;20030;-72
2020/12/29 05:01:48;;;;;;;50.58;25.23;;;1.20;99.90;;;;;;4980420;28;20026;-72
2020/12/29 05:04:14;;;;;;;55.15;25.83;;;1.20;99.90;;;;;;4977738;28;20491;-72
2020/12/29 05:06:40;;;;;;;56.08;26.63;;;1.20;99.90;;;;;;4980384;28;20045;-72
2020/12/29 05:09:06;;;;;;;56.47;25.67;;;1.30;99.90;;;;;;4978082;28;20023;-72
2020/12/29 05:11:34;;;;;;;54.03;27.08;;;1.30;99.90;;;;;;4980201;28;20038;-72
2020/12/29 05:14:01;;;;;;;55.13;26.63;;;1.20;99.90;;;;;;4982009;28;20038;-72
2020/12/29 05:16:27;;;;;;;50.90;25.10;;;1.10;99.90;;;;;;4981229;28;20124;-72
2020/12/29 05:18:53;;;;;;;50.15;25.58;;;1.10;99.90;;;;;;4981762;28;20038;-72
2020/12/29 05:21:19;;;;;;;65.10;26.02;;;1.10;99.90;;;;;;4981300;28;20031;-72
2020/12/29 05:23:44;;;;;;;57.20;27.02;;;1.10;99.90;;;;;;4979692;28;20026;-68
2020/12/29 05:26:11;;;;;;;52.13;25.42;;;1.00;99.90;;;;;;4980921;28;20442;-68
2020/12/29 05:28:37;;;;;;;56.60;26.60;;;1.10;99.90;;;;;;4980616;28;20034;-68
2020/12/29 05:31:05;;;;;;;52.40;25.23;;;1.00;99.90;;;;;;4980746;28;20045;-68
2020/12/29 05:33:31;;;;;;;53.97;26.25;;;1.00;99.90;;;;;;4984454;28;20034;-68
2020/12/29 05:35:58;;;;;;;53.45;25.40;;;1.00;99.90;;;;;;4980204;28;20152;-68
2020/12/29 05:38:24;;;;;;;54.45;25.40;;;1.10;99.90;;;;;;4981460;28;20042;-68
2020/12/29 05:40:50;;;;;;;52.78;25.90;;;1.00;99.90;;;;;;4981870;28;20037;-68
2020/12/29 05:43:30;;;;;;;51.25;25.63;;;0.90;99.90;;;;;;4981334;28;20038;-68
2020/12/29 05:46:03;;;;;;;53.25;25.33;;;0.90;99.90;;;;;;4979939;28;20038;-68
2020/12/29 05:48:29;;;;;;;59.30;26.63;;;0.80;99.90;;;;;;4962068;28;20043;-68
2020/12/29 05:50:55;;;;;;;58.25;26.08;;;0.80;99.90;;;;;;4981409;28;20037;-68
2020/12/29 05:53:22;;;;;;;56.45;27.17;;;0.80;99.90;;;;;;4982041;28;20487;-70
2020/12/29 05:55:47;;;;;;;57.30;27.17;;;0.90;99.90;;;;;;4980907;28;20041;-68
2020/12/29 05:58:16;;;;;;;57.30;26.20;;;0.90;99.90;;;;;;4981354;28;20446;-68
2020/12/29 06:00:42;;;;;;;57.33;26.15;;;0.90;99.90;;;;;;4981585;28;20041;-68
2020/12/29 06:03:08;;;;;;;53.13;25.85;;;0.90;99.90;;;;;;4981702;28;20030;-68
2020/12/29 06:05:36;;;;;;;52.67;26.23;;;0.90;99.90;;;;;;4980551;28;20226;-68
2020/12/29 06:08:06;;;;;;;54.63;25.65;;;0.80;99.90;;;;;;4975124;28;20053;-70
2020/12/29 06:10:34;;;;;;;60.53;25.85;;;0.80;99.90;;;;;;4977591;28;20944;-68
2020/12/29 06:13:01;;;;;;;57.78;27.00;;;0.80;99.90;;;;;;4980977;28;20579;-70
2020/12/29 06:15:29;;;;;;;55.90;25.00;;;0.80;99.90;;;;;;4980600;28;20042;-70
2020/12/29 06:17:57;;;;;;;47.88;23.27;;;0.80;99.90;;;;;;4981135;28;20035;-71
2020/12/29 06:20:26;;;;;;;54.38;26.30;;;0.80;99.90;;;;;;4977993;28;20633;-68
2020/12/29 06:23:00;;;;;;;51.92;24.40;;;0.80;99.90;;;;;;4979169;28;20030;-68
2020/12/29 06:25:31;;;;;;;52.15;25.50;;;0.70;99.90;;;;;;4980181;28;20042;-68
2020/12/29 06:28:00;;;;;;;54.42;24.77;;;0.70;99.90;;;;;;4979969;28;20041;-68
2020/12/29 06:30:26;;;;;;;54.40;24.95;;;0.80;99.90;;;;;;4976773;28;20045;-68
2020/12/29 06:32:54;;;;;;;53.47;24.95;;;0.80;99.90;;;;;;4977727;28;20039;-69
2020/12/29 06:35:19;;;;;;;53.25;24.95;;;0.80;99.90;;;;;;4973124;28;20441;-69
2020/12/29 06:38:05;;;;;;;50.17;23.75;;;0.70;99.90;;;;;;4978419;28;20034;-70
2020/12/29 06:40:32;;;;;;;54.88;24.92;;;0.70;99.90;;;;;;4980635;28;20042;-69
2020/12/29 06:42:58;;;;;;;55.60;25.27;;;0.60;99.90;;;;;;4972410;28;20060;-69
2020/12/29 06:45:24;;;;;;;48.25;23.00;;;0.60;99.90;;;;;;4980254;28;20029;-69
2020/12/29 06:47:51;;;;;;;54.00;25.17;;;0.60;99.90;;;;;;4980463;28;20049;-69
2020/12/29 06:50:31;;;;;;;50.17;24.38;;;0.50;99.90;;;;;;4980101;28;20039;-70
2020/12/29 06:53:01;;;;;;;62.38;28.73;;;0.60;99.90;;;;;;5013702;28;20042;-70
2020/12/29 06:55:46;;;;;;;56.53;27.83;;;0.50;99.90;;;;;;4977563;28;20842;-69
2020/12/29 06:58:27;;;;;;;;;;;0.50;99.90;;;;;;4982910;28;20049;-70
2020/12/29 07:00:52;;;;;;;61.90;33.20;;;0.40;99.90;;;;;;4982587;28;19914;-68
2020/12/29 07:03:31;;;;;;;64.10;30.25;;;0.40;99.90;;;;;;4984268;28;20426;-68
2020/12/29 07:05:57;;;;;;;62.80;28.30;;;0.40;99.90;;;;;;4983372;28;20049;-70
2020/12/29 07:08:36;;;;;;;55.10;26.13;;;0.40;99.90;;;;;;4977759;28;20022;-69
2020/12/29 07:11:16;;;;;;;50.47;24.20;;;0.40;99.90;;;;;;4981448;28;20030;-69
2020/12/29 07:13:45;;;;;;;51.53;24.70;;;0.40;99.90;;;;;;4982400;28;20032;-69
2020/12/29 07:16:12;;;;;;;48.70;23.58;;;0.50;99.90;;;;;;4983150;28;20034;-71
2020/12/29 07:18:43;;;;;;;55.45;23.83;;;0.40;99.90;;;;;;4979420;28;20035;-69
2020/12/29 07:21:24;;;;;;;52.72;24.92;;;0.40;99.90;;;;;;4983391;28;20097;-69
2020/12/29 07:23:51;;;;;;;49.72;23.30;;;0.40;99.90;;;;;;4968768;28;20054;-69
2020/12/29 07:26:22;;;;;;;47.40;22.45;;;0.30;99.90;;;;;;4977269;28;20121;-69
2020/12/29 07:28:55;;;;;;;48.80;21.58;;;0.30;99.90;;;;;;4981973;28;20450;-69
2020/12/29 07:31:21;;;;;;;55.60;24.42;;;0.20;99.90;;;;;;4974711;28;20077;-69
2020/12/29 07:33:54;;;;;;;51.15;21.52;;;0.20;99.90;;;;;;4983197;28;20145;-69
2020/12/29 07:36:21;;;;;;;43.15;21.60;;;0.20;99.90;;;;;;4983216;28;20062;-69
2020/12/29 07:38:48;;;;;;;51.05;21.75;;;0.20;99.90;;;;;;4979563;28;20049;-69
2020/12/29 07:41:16;;;;;;;44.15;20.88;;;0.20;99.90;;;;;;4973662;28;20038;-69
2020/12/29 07:43:41;;;;;;;44.28;21.23;;;0.20;99.90;;;;;;4980893;28;20124;-69
2020/12/29 07:46:08;;;;;;;46.38;21.88;;;0.20;99.90;;;;;;4977017;28;20734;-69
2020/12/29 07:48:34;;;;;;;58.47;26.27;;;0.20;99.90;;;;;;4981945;28;20022;-70
2020/12/29 07:51:00;;;;;;;57.50;25.58;;;0.20;99.90;;;;;;4976231;28;20042;-69
2020/12/29 07:53:26;;;;;;;52.75;24.52;;;0.20;99.90;;;;;;4982410;28;20038;-68
2020/12/29 07:55:52;;;;;;;52.10;24.13;;;0.40;99.90;;;;;;4982302;28;20034;-68
2020/12/29 07:58:18;;;;;;;59.30;24.63;;;0.50;99.90;;;;;;4981642;28;20486;-68
2020/12/29 08:00:44;;;;;;;51.20;22.67;;;0.60;99.90;;;;;;4982183;28;20042;-68
2020/12/29 08:03:11;;;;;;;69.82;30.20;;;0.60;99.90;;;;;;4976749;28;20033;-69
2020/12/29 08:05:38;;;;;;;47.97;22.42;;;0.60;99.90;;;;;;4962072;28;20026;-69
2020/12/29 08:08:09;;;;;;;43.05;22.60;;;0.60;99.90;;;;;;4982271;28;20030;-69
2020/12/29 08:10:43;;;;;;;43.78;22.23;;;0.60;99.90;;;;;;4982089;28;20133;-69
2020/12/29 08:13:15;;;;;;;48.47;22.88;;;0.70;99.90;;;;;;4977110;28;20053;-69
2020/12/29 08:15:50;;;;;;;46.25;22.17;;;0.60;99.90;;;;;;4980678;28;20050;-72
2020/12/29 08:18:19;;;;;;;46.95;22.25;;;0.70;99.90;;;;;;4970770;28;20043;-72
2020/12/29 08:20:50;;;;;;;43.65;21.45;;;0.80;99.90;;;;;;4971777;28;20033;-72
2020/12/29 08:23:20;;;;;;;45.45;22.33;;;0.90;99.90;;;;;;4974809;28;20034;-70
2020/12/29 08:25:49;;;;;;;45.00;21.77;;;1.10;99.90;;;;;;4980601;28;20034;-72
2020/12/29 08:28:15;;;;;;;41.38;20.75;;;1.10;99.90;;;;;;4981167;28;20030;-72
2020/12/29 08:30:40;;;;;;;43.63;21.67;;;1.30;99.90;;;;;;4980778;28;20263;-72
2020/12/29 08:33:07;;;;;;;44.08;20.40;;;1.40;99.90;;;;;;4977683;28;20038;-70
2020/12/29 08:35:51;;;;;;;39.90;19.02;;;1.40;99.90;;;;;;4978215;28;20049;-69
2020/12/29 08:38:39;;;;;;;38.03;18.92;;;1.70;99.90;;;;;;4978151;28;20072;-70
2020/12/29 08:41:12;;;;;;;36.97;18.35;;;1.70;99.90;;;;;;4978371;28;20034;-70
2020/12/29 08:43:42;;;;;;;36.78;18.73;;;1.80;99.90;;;;;;4980908;28;20030;-71
2020/12/29 08:46:09;;;;;;;43.78;20.27;;;1.80;99.90;;;;;;4980602;28;20077;-70
2020/12/29 08:48:35;;;;;;;34.60;18.15;;;1.90;99.90;;;;;;4979534;28;20137;-70
2020/12/29 08:51:19;;;;;;;35.45;18.85;;;2.00;99.90;;;;;;4980370;28;20038;-69
2020/12/29 08:53:45;;;;;;;32.42;16.98;;;2.00;99.90;;;;;;4980471;28;20138;-70
2020/12/29 08:56:26;;;;;;;33.72;17.30;;;2.10;99.90;;;;;;4980726;28;20038;-69
2020/12/29 08:58:53;;;;;;;36.85;17.40;;;2.10;99.90;;;;;;4977454;28;20035;-70
2020/12/29 09:01:33;;;;;;;30.63;15.30;;;2.10;99.90;;;;;;4980891;28;20113;-70
2020/12/29 09:04:21;;;;;;;30.48;17.27;;;2.30;99.90;;;;;;4996437;28;20034;-71
2020/12/29 09:07:07;;;;;;;28.50;15.70;;;2.30;99.90;;;;;;4975703;28;20202;-71
2020/12/29 09:09:50;;;;;;;34.55;15.57;;;2.40;99.90;;;;;;4979889;28;20038;-71
2020/12/29 09:12:21;;;;;;;27.65;15.43;;;2.40;99.90;;;;;;4978890;28;20070;-71
2020/12/29 09:15:02;;;;;;;30.20;14.68;;;2.50;99.90;;;;;;4980647;28;20049;-72
2020/12/29 09:17:40;;;;;;;27.80;14.55;;;2.50;99.90;;;;;;4976659;28;20030;-71
2020/12/29 09:20:13;;;;;;;30.25;15.25;;;2.40;99.90;;;;;;4980848;28;20057;-72
2020/12/29 09:22:47;;;;;;;30.15;14.73;;;2.50;99.90;;;;;;4980094;28;20502;-71
2020/12/29 09:25:21;;;;;;;30.83;15.82;;;2.60;99.90;;;;;;4979958;28;20046;-71
2020/12/29 09:27:47;;;;;;;24.58;13.55;;;2.60;99.90;;;;;;4979638;28;20108;-71
2020/12/29 09:30:13;;;;;;;27.40;14.50;;;2.70;99.90;;;;;;4977925;28;20438;-71
2020/12/29 09:32:39;;;;;;;24.95;13.77;;;2.80;99.90;;;;;;4980323;28;20533;-71
2020/12/29 09:38:04;;;;;;;27.45;14.45;;;2.80;99.90;;;;;;4975137;28;20044;-71
2020/12/29 09:40:29;;;;;;;28.58;14.50;;;3.00;99.90;;;;;;4994944;28;20406;-71
2020/12/29 09:42:56;;;;;;;26.13;13.98;;;3.00;99.90;;;;;;4978328;28;20758;-72
2020/12/29 09:45:24;;;;;;;26.58;13.93;;;3.00;99.90;;;;;;4977104;28;20031;-72
2020/12/29 09:47:51;;;;;;;24.63;13.60;;;3.00;99.90;;;;;;4977158;28;20094;-71
2020/12/29 09:50:17;;;;;;;35.22;17.70;;;2.90;99.90;;;;;;4979686;28;20042;-72
2020/12/29 09:52:43;;;;;;;28.02;14.50;;;2.90;99.90;;;;;;4980944;28;20026;-72
2020/12/29 09:55:08;;;;;;;27.13;13.85;;;3.10;99.90;;;;;;4980558;28;20719;-71
2020/12/29 09:57:34;;;;;;;25.55;14.15;;;3.30;99.90;;;;;;4980341;28;20045;-71
2020/12/29 10:00:01;;;;;;;22.52;13.15;;;3.70;99.90;;;;;;4979902;28;20085;-71
2020/12/29 10:02:26;;;;;;;21.33;12.40;;;4.00;99.90;;;;;;4980691;28;20026;-71
2020/12/29 10:04:52;;;;;;;24.10;13.35;;;4.10;99.90;;;;;;4980422;28;20430;-72
2020/12/29 10:07:18;;;;;;;27.02;13.98;;;4.10;99.90;;;;;;4979463;28;20105;-71
2020/12/29 10:09:44;;;;;;;25.17;12.75;;;3.70;99.90;;;;;;4974120;28;20137;-71
2020/12/29 10:12:10;;;;;;;24.27;12.02;;;3.70;99.90;;;;;;4979764;28;20490;-71
2020/12/29 10:14:36;;;;;;;24.33;12.45;;;3.60;99.90;;;;;;4976865;28;20030;-72
2020/12/29 10:17:02;;;;;;;23.98;12.93;;;3.50;99.90;;;;;;4978780;28;20112;-71
2020/12/29 10:19:27;;;;;;;22.52;12.52;;;3.40;99.90;;;;;;4978629;28;20026;-71
2020/12/29 10:21:54;;;;;;;25.70;12.45;;;3.20;99.90;;;;;;4961329;28;21692;-71
2020/12/29 10:24:20;;;;;;;24.63;13.07;;;3.20;99.90;;;;;;4981299;28;20069;-72
2020/12/29 10:26:49;;;;;;;20.33;11.75;;;3.30;99.90;;;;;;4976577;28;20122;-72
2020/12/29 10:29:16;;;;;;;22.20;12.50;;;3.30;99.90;;;;;;4979861;28;20062;-72
2020/12/29 10:31:42;;;;;;;23.85;12.50;;;3.50;99.90;;;;;;4978649;28;20034;-72
2020/12/29 10:34:13;;;;;;;22.27;12.95;;;3.50;99.90;;;;;;4964508;28;20037;-71
2020/12/29 10:36:39;;;;;;;20.73;12.20;;;3.50;99.90;;;;;;4968506;28;20053;-71
2020/12/29 10:39:06;;;;;;;20.90;11.98;;;3.60;99.90;;;;;;4974409;28;20034;-72
2020/12/29 10:41:34;;;;;;;24.63;13.02;;;3.50;99.90;;;;;;4981298;28;20038;-71
2020/12/29 10:44:00;;;;;;;21.98;12.55;;;3.50;99.90;;;;;;4961651;28;20066;-70
2020/12/29 10:46:26;;;;;;;19.65;11.55;;;3.50;99.90;;;;;;4978632;28;20174;-69
2020/12/29 10:48:52;;;;;;;21.58;12.57;;;3.50;99.90;;;;;;4979428;28;20046;-70
2020/12/29 10:51:22;;;;;;;23.45;12.25;;;3.60;99.90;;;;;;4976198;28;20042;-71
2020/12/29 10:53:49;;;;;;;23.77;12.70;;;3.60;99.90;;;;;;4975667;28;20042;-70
2020/12/29 10:56:15;;;;;;;23.63;13.50;;;3.50;99.90;;;;;;4973846;28;20030;-70
2020/12/29 10:58:42;;;;;;;20.40;11.77;;;3.50;99.90;;;;;;4972281;28;20097;-70
2020/12/29 11:01:27;;;;;;;21.65;12.57;;;3.50;99.90;;;;;;4979414;28;20048;-71
2020/12/29 11:03:53;;;;;;;;;;;3.50;99.90;;;;;;4979506;28;20101;-70
2020/12/29 11:06:20;;;;;;;20.60;11.75;;;3.60;99.90;;;;;;4976740;28;19917;-70
2020/12/29 11:08:47;;;;;;;37.30;18.67;;;3.50;99.90;;;;;;4975827;28;20106;-71
2020/12/29 11:11:14;;;;;;;19.92;12.10;;;3.60;99.90;;;;;;4984849;23;20047;-70
2020/12/29 11:13:40;;;;;;;19.67;11.32;;;3.70;99.90;;;;;;4944468;28;20039;-71
2020/12/29 11:16:06;;;;;;;21.27;11.98;;;3.80;99.90;;;;;;4940362;28;20558;-71
2020/12/29 11:18:32;;;;;;;20.98;11.07;;;3.90;99.90;;;;;;4965839;28;20031;-71
2020/12/29 11:20:57;;;;;;;22.15;11.57;;;3.80;99.90;;;;;;4961574;28;20042;-71
2020/12/29 11:23:23;;;;;;;20.02;11.55;;;3.80;99.90;;;;;;4965960;28;20031;-71
2020/12/29 11:25:49;;;;;;;18.98;11.57;;;3.90;99.90;;;;;;4961600;28;20782;-71
2020/12/29 11:28:16;;;;;;;17.42;10.38;;;4.10;99.90;;;;;;4960747;28;20054;-71
2020/12/29 11:30:44;;;;;;;17.67;10.30;;;4.20;99.90;;;;;;4969914;28;20053;-70
2020/12/29 11:33:09;;;;;;;41.58;21.70;;;4.20;99.90;;;;;;4972425;28;20039;-74
2020/12/29 11:35:35;;;;;;;18.17;9.77;;;4.30;99.90;;;;;;4966735;28;20042;-74
2020/12/29 11:38:01;;;;;;;19.50;10.27;;;4.40;99.90;;;;;;4971031;28;20026;-74
2020/12/29 11:40:26;;;;;;;18.42;9.85;;;4.40;99.90;;;;;;4965452;28;20074;-74
2020/12/29 11:42:52;;;;;;;19.92;10.40;;;4.40;99.90;;;;;;4966604;28;20035;-72
2020/12/29 11:45:18;;;;;;;18.33;10.18;;;4.50;99.90;;;;;;4970397;28;20027;-72
2020/12/29 11:47:45;;;;;;;17.35;9.75;;;4.50;99.90;;;;;;4962912;28;20242;-72
2020/12/29 11:50:10;;;;;;;16.52;9.90;;;4.50;99.90;;;;;;4969081;28;20677;-72
2020/12/29 11:52:36;;;;;;;17.08;10.18;;;4.60;99.90;;;;;;4969226;28;20122;-72
2020/12/29 11:55:01;;;;;;;17.05;9.43;;;4.70;99.90;;;;;;4964514;28;20065;-72
2020/12/29 11:57:27;;;;;;;18.80;10.10;;;4.70;99.90;;;;;;4966496;28;20040;-72
2020/12/29 11:59:53;;;;;;;16.42;9.30;;;4.80;99.90;;;;;;4966706;28;20118;-72
2020/12/29 12:02:18;;;;;;;15.80;9.57;;;4.80;99.90;;;;;;4965515;28;20042;-72
2020/12/29 12:04:44;;;;;;;20.08;10.75;;;4.70;99.90;;;;;;4964610;28;20109;-73
2020/12/29 12:07:13;;;;;;;17.20;10.63;;;4.70;99.90;;;;;;4966647;28;20073;-72
2020/12/29 12:09:40;;;;;;;18.80;11.90;;;4.70;99.90;;;;;;4970989;28;20026;-72
2020/12/29 12:12:05;;;;;;;18.15;11.10;;;4.70;99.90;;;;;;4973964;28;20039;-73
2020/12/29 12:14:31;;;;;;;17.25;10.63;;;4.80;99.90;;;;;;4964699;28;20487;-73
2020/12/29 12:16:57;;;;;;;18.25;11.07;;;4.90;99.90;;;;;;4969851;28;20038;-69
2020/12/29 12:19:23;;;;;;;18.30;10.85;;;5.10;99.90;;;;;;4965353;28;20046;-73
2020/12/29 12:21:49;;;;;;;24.63;13.00;;;5.20;99.90;;;;;;4963495;28;20038;-73
2020/12/29 12:24:14;;;;;;;15.25;9.13;;;5.30;99.90;;;;;;4972595;28;20043;-73
2020/12/29 12:26:40;;;;;;;16.67;9.65;;;5.50;99.90;;;;;;4962094;28;20031;-73
2020/12/29 12:29:06;;;;;;;16.50;9.85;;;5.70;99.90;;;;;;4971301;28;20135;-73
2020/12/29 12:31:31;;;;;;;18.00;9.82;;;5.80;99.90;;;;;;4949881;28;20034;-73
2020/12/29 12:33:57;;;;;;;17.35;9.57;;;5.80;99.90;;;;;;4969810;28;20066;-73
2020/12/29 12:36:23;;;;;;;15.05;8.77;;;5.70;99.90;;;;;;4954930;28;20043;-73
2020/12/29 12:38:48;;;;;;;13.68;8.70;;;5.50;99.90;;;;;;4968677;28;20096;-73
2020/12/29 12:41:14;;;;;;;15.70;9.68;;;5.20;99.90;;;;;;4972435;28;20041;-73
2020/12/29 12:43:40;;;;;;;17.08;10.00;;;5.10;99.90;;;;;;4967009;28;20038;-73